sensor_id;sensor_type;location;lat;lon;timestamp;temperature;humidity
46319;DHT22;32042;50.916;2.926;2022-09-09T00:07:21;15.30;99.90
46319;DHT22;32042;50.916;2.926;2022-09-09T00:10:16;15.30;99.90
46319;DHT22;32042;50.916;2.926;2022-09-09T00:15:38;15.20;99.90
46319;DHT22;32042;50.916;2.926;2022-09-09T00:18:24;15.30;99.90
46319;DHT22;32042;50.916;2.926;2022-09-09T00:21:11;15.30;99.90
46319;DHT22;32042;50.916;2.926;2022-09-09T00:23:40;15.30;99.90
46319;DHT22;32042;50.916;2.926;2022-09-09T00:31:30;15.30;99.90
46319;DHT22;32042;50.916;2.926;2022-09-09T00:34:11;15.30;99.90
46319;DHT22;32042;50.916;2.926;2022-09-09T00:36:39;15.30;99.90
46319;DHT22;32042;50.916;2.926;2022-09-09T00:39:09;15.30;99.90
46319;DHT22;32042;50.916;2.926;2022-09-09T00:42:14;15.30;99.90
46319;DHT22;32042;50.916;2.926;2022-09-09T00:45:11;15.30;99.90
46319;DHT22;32042;50.916;2.926;2022-09-09T00:47:46;15.30;99.90
46319;DHT22;32042;50.916;2.926;2022-09-09T00:55:45;15.30;99.90
46319;DHT22;32042;50.916;2.926;2022-09-09T00:58:13;15.20;99.90
46319;DHT22;32042;50.916;2.926;2022-09-09T01:03:36;15.20;99.90
46319;DHT22;32042;50.916;2.926;2022-09-09T01:08:56;15.10;99.90
46319;DHT22;32042;50.916;2.926;2022-09-09T01:16:36;15.10;99.90
46319;DHT22;32042;50.916;2.926;2022-09-09T01:19:03;15.10;99.90
46319;DHT22;32042;50.916;2.926;2022-09-09T01:22:00;15.10;99.90
46319;DHT22;32042;50.916;2.926;2022-09-09T01:24:40;15.10;99.90
46319;DHT22;32042;50.916;2.926;2022-09-09T01:27:11;15.10;99.90
46319;DHT22;32042;50.916;2.926;2022-09-09T01:29:38;15.10;99.90
46319;DHT22;32042;50.916;2.926;2022-09-09T01:32:40;15.10;99.90
46319;DHT22;32042;50.916;2.926;2022-09-09T01:37:49;15.10;99.90
46319;DHT22;32042;50.916;2.926;2022-09-09T01:40:14;15.10;99.90
46319;DHT22;32042;50.916;2.926;2022-09-09T01:42:40;15.10;99.90
46319;DHT22;32042;50.916;2.926;2022-09-09T01:45:06;15.10;99.90
46319;DHT22;32042;50.916;2.926;2022-09-09T01:47:32;15.10;99.90
46319;DHT22;32042;50.916;2.926;2022-09-09T01:49:59;15.10;99.90
46319;DHT22;32042;50.916;2.926;2022-09-09T01:52:25;15.10;99.90
46319;DHT22;32042;50.916;2.926;2022-09-09T01:54:51;15.10;99.90
46319;DHT22;32042;50.916;2.926;2022-09-09T01:57:35;15.10;99.90
46319;DHT22;32042;50.916;2.926;2022-09-09T02:00:09;15.10;99.90
46319;DHT22;32042;50.916;2.926;2022-09-09T02:03:00;15.20;99.90
46319;DHT22;32042;50.916;2.926;2022-09-09T02:05:38;15.20;99.90
46319;DHT22;32042;50.916;2.926;2022-09-09T02:08:09;15.20;99.90
46319;DHT22;32042;50.916;2.926;2022-09-09T02:13:17;15.20;99.90
46319;DHT22;32042;50.916;2.926;2022-09-09T02:18:22;15.20;99.90
46319;DHT22;32042;50.916;2.926;2022-09-09T02:20:50;15.20;99.90
46319;DHT22;32042;50.916;2.926;2022-09-09T02:23:17;15.20;99.90
46319;DHT22;32042;50.916;2.926;2022-09-09T02:25:45;15.20;99.90
46319;DHT22;32042;50.916;2.926;2022-09-09T02:28:13;15.20;99.90
46319;DHT22;32042;50.916;2.926;2022-09-09T02:30:42;15.20;99.90
46319;DHT22;32042;50.916;2.926;2022-09-09T02:33:09;15.20;99.90
46319;DHT22;32042;50.916;2.926;2022-09-09T02:35:40;15.20;99.90
46319;DHT22;32042;50.916;2.926;2022-09-09T02:38:12;15.20;99.90
46319;DHT22;32042;50.916;2.926;2022-09-09T02:40:40;15.20;99.90
46319;DHT22;32042;50.916;2.926;2022-09-09T02:43:06;15.20;99.90
46319;DHT22;32042;50.916;2.926;2022-09-09T02:46:12;15.20;99.90
46319;DHT22;32042;50.916;2.926;2022-09-09T02:51:33;15.30;99.90
46319;DHT22;32042;50.916;2.926;2022-09-09T02:54:20;15.30;99.90
46319;DHT22;32042;50.916;2.926;2022-09-09T02:56:52;15.30;99.90
46319;DHT22;32042;50.916;2.926;2022-09-09T02:59:22;15.30;99.90
46319;DHT22;32042;50.916;2.926;2022-09-09T03:01:48;15.30;99.90
46319;DHT22;32042;50.916;2.926;2022-09-09T03:04:14;15.30;99.90
46319;DHT22;32042;50.916;2.926;2022-09-09T03:06:39;15.30;99.90
46319;DHT22;32042;50.916;2.926;2022-09-09T03:09:05;15.30;99.90
46319;DHT22;32042;50.916;2.926;2022-09-09T03:11:31;15.30;99.90
46319;DHT22;32042;50.916;2.926;2022-09-09T03:13:56;15.30;99.90
46319;DHT22;32042;50.916;2.926;2022-09-09T03:16:23;15.30;99.90
46319;DHT22;32042;50.916;2.926;2022-09-09T03:18:49;15.30;99.90
46319;DHT22;32042;50.916;2.926;2022-09-09T03:21:14;15.30;99.90
46319;DHT22;32042;50.916;2.926;2022-09-09T03:23:40;15.40;99.90
46319;DHT22;32042;50.916;2.926;2022-09-09T03:26:06;15.40;99.90
46319;DHT22;32042;50.916;2.926;2022-09-09T03:28:32;15.40;99.90
46319;DHT22;32042;50.916;2.926;2022-09-09T03:31:03;15.40;99.90
46319;DHT22;32042;50.916;2.926;2022-09-09T03:33:29;15.40;99.90
46319;DHT22;32042;50.916;2.926;2022-09-09T03:35:55;15.40;99.90
46319;DHT22;32042;50.916;2.926;2022-09-09T03:38:24;15.40;99.90
46319;DHT22;32042;50.916;2.926;2022-09-09T03:40:55;15.40;99.90
46319;DHT22;32042;50.916;2.926;2022-09-09T03:43:21;15.40;99.90
46319;DHT22;32042;50.916;2.926;2022-09-09T03:45:48;15.40;99.90
46319;DHT22;32042;50.916;2.926;2022-09-09T03:48:14;15.40;99.90
46319;DHT22;32042;50.916;2.926;2022-09-09T03:50:51;15.40;99.90
46319;DHT22;32042;50.916;2.926;2022-09-09T03:53:19;15.40;99.90
46319;DHT22;32042;50.916;2.926;2022-09-09T03:55:49;15.40;99.90
46319;DHT22;32042;50.916;2.926;2022-09-09T03:58:18;15.40;99.90
46319;DHT22;32042;50.916;2.926;2022-09-09T04:00:56;15.40;99.90
46319;DHT22;32042;50.916;2.926;2022-09-09T04:03:22;15.40;99.90
46319;DHT22;32042;50.916;2.926;2022-09-09T04:05:50;15.30;99.90
46319;DHT22;32042;50.916;2.926;2022-09-09T04:08:16;15.30;99.90
46319;DHT22;32042;50.916;2.926;2022-09-09T04:10:45;15.30;99.90
46319;DHT22;32042;50.916;2.926;2022-09-09T04:13:12;15.30;99.90
46319;DHT22;32042;50.916;2.926;2022-09-09T04:15:40;15.20;99.90
46319;DHT22;32042;50.916;2.926;2022-09-09T04:18:07;15.20;99.90
46319;DHT22;32042;50.916;2.926;2022-09-09T04:20:32;15.20;99.90
46319;DHT22;32042;50.916;2.926;2022-09-09T04:22:58;15.20;99.90
46319;DHT22;32042;50.916;2.926;2022-09-09T04:25:24;15.20;99.90
46319;DHT22;32042;50.916;2.926;2022-09-09T04:27:54;15.10;99.90
46319;DHT22;32042;50.916;2.926;2022-09-09T04:30:20;15.10;99.90
46319;DHT22;32042;50.916;2.926;2022-09-09T04:32:46;15.10;99.90
46319;DHT22;32042;50.916;2.926;2022-09-09T04:35:12;15.10;99.90
46319;DHT22;32042;50.916;2.926;2022-09-09T04:37:38;15.10;99.90
46319;DHT22;32042;50.916;2.926;2022-09-09T04:40:04;15.10;99.90
46319;DHT22;32042;50.916;2.926;2022-09-09T04:42:30;15.10;99.90
46319;DHT22;32042;50.916;2.926;2022-09-09T04:44:55;15.10;99.90
46319;DHT22;32042;50.916;2.926;2022-09-09T04:47:21;15.00;99.90
46319;DHT22;32042;50.916;2.926;2022-09-09T04:49:47;15.00;99.90
46319;DHT22;32042;50.916;2.926;2022-09-09T04:52:13;15.00;99.90
46319;DHT22;32042;50.916;2.926;2022-09-09T04:54:38;15.00;99.90
46319;DHT22;32042;50.916;2.926;2022-09-09T04:57:04;15.00;99.90
46319;DHT22;32042;50.916;2.926;2022-09-09T04:59:30;15.00;99.90
46319;DHT22;32042;50.916;2.926;2022-09-09T05:01:56;14.90;99.90
46319;DHT22;32042;50.916;2.926;2022-09-09T05:04:21;15.00;99.90
46319;DHT22;32042;50.916;2.926;2022-09-09T05:06:47;14.90;99.90
46319;DHT22;32042;50.916;2.926;2022-09-09T05:09:13;15.00;99.90
46319;DHT22;32042;50.916;2.926;2022-09-09T05:11:39;15.00;99.90
46319;DHT22;32042;50.916;2.926;2022-09-09T05:14:05;14.90;99.90
46319;DHT22;32042;50.916;2.926;2022-09-09T05:16:31;14.90;99.90
46319;DHT22;32042;50.916;2.926;2022-09-09T05:18:56;14.90;99.90
46319;DHT22;32042;50.916;2.926;2022-09-09T05:21:23;14.90;99.90
46319;DHT22;32042;50.916;2.926;2022-09-09T05:23:51;14.80;99.90
46319;DHT22;32042;50.916;2.926;2022-09-09T05:26:20;14.90;99.90
46319;DHT22;32042;50.916;2.926;2022-09-09T05:28:47;14.80;99.90
46319;DHT22;32042;50.916;2.926;2022-09-09T05:31:14;14.80;99.90
46319;DHT22;32042;50.916;2.926;2022-09-09T05:33:42;14.90;99.90
46319;DHT22;32042;50.916;2.926;2022-09-09T05:36:11;14.90;99.90
46319;DHT22;32042;50.916;2.926;2022-09-09T05:38:39;14.90;99.90
46319;DHT22;32042;50.916;2.926;2022-09-09T05:41:06;14.90;99.90
46319;DHT22;32042;50.916;2.926;2022-09-09T05:43:32;14.90;99.90
46319;DHT22;32042;50.916;2.926;2022-09-09T05:48:34;14.90;99.90
46319;DHT22;32042;50.916;2.926;2022-09-09T05:51:00;14.90;99.90
46319;DHT22;32042;50.916;2.926;2022-09-09T05:53:28;14.90;99.90
46319;DHT22;32042;50.916;2.926;2022-09-09T05:56:02;15.00;99.90
46319;DHT22;32042;50.916;2.926;2022-09-09T05:58:34;14.90;99.90
46319;DHT22;32042;50.916;2.926;2022-09-09T06:01:08;14.90;99.90
46319;DHT22;32042;50.916;2.926;2022-09-09T06:03:36;15.00;99.90
46319;DHT22;32042;50.916;2.926;2022-09-09T06:06:05;15.00;99.90
46319;DHT22;32042;50.916;2.926;2022-09-09T06:08:32;15.00;99.90
46319;DHT22;32042;50.916;2.926;2022-09-09T06:11:02;15.00;99.90
46319;DHT22;32042;50.916;2.926;2022-09-09T06:13:29;15.00;99.90
46319;DHT22;32042;50.916;2.926;2022-09-09T06:15:55;15.00;99.90
46319;DHT22;32042;50.916;2.926;2022-09-09T06:18:21;15.00;99.90
46319;DHT22;32042;50.916;2.926;2022-09-09T06:21:04;15.00;99.90
46319;DHT22;32042;50.916;2.926;2022-09-09T06:23:31;15.00;99.90
46319;DHT22;32042;50.916;2.926;2022-09-09T06:26:17;15.00;99.90
46319;DHT22;32042;50.916;2.926;2022-09-09T06:28:47;14.90;99.90
46319;DHT22;32042;50.916;2.926;2022-09-09T06:31:17;14.90;99.90
46319;DHT22;32042;50.916;2.926;2022-09-09T06:33:47;14.90;99.90
46319;DHT22;32042;50.916;2.926;2022-09-09T06:36:14;14.90;99.90
46319;DHT22;32042;50.916;2.926;2022-09-09T06:38:44;14.90;99.90
46319;DHT22;32042;50.916;2.926;2022-09-09T06:41:11;14.90;99.90
46319;DHT22;32042;50.916;2.926;2022-09-09T06:43:37;14.80;99.90
46319;DHT22;32042;50.916;2.926;2022-09-09T06:46:15;14.80;99.90
46319;DHT22;32042;50.916;2.926;2022-09-09T06:48:42;14.80;99.90
46319;DHT22;32042;50.916;2.926;2022-09-09T06:53:38;14.90;99.90
46319;DHT22;32042;50.916;2.926;2022-09-09T06:58:39;14.90;99.90
46319;DHT22;32042;50.916;2.926;2022-09-09T07:01:13;14.90;99.90
46319;DHT22;32042;50.916;2.926;2022-09-09T07:03:40;14.90;99.90
46319;DHT22;32042;50.916;2.926;2022-09-09T07:06:06;14.90;99.90
46319;DHT22;32042;50.916;2.926;2022-09-09T07:08:33;14.90;99.90
46319;DHT22;32042;50.916;2.926;2022-09-09T07:11:06;14.90;99.90
46319;DHT22;32042;50.916;2.926;2022-09-09T07:13:33;14.90;99.90
46319;DHT22;32042;50.916;2.926;2022-09-09T07:16:07;14.90;99.90
46319;DHT22;32042;50.916;2.926;2022-09-09T07:18:33;15.00;99.90
46319;DHT22;32042;50.916;2.926;2022-09-09T07:21:00;15.00;99.90
46319;DHT22;32042;50.916;2.926;2022-09-09T07:23:27;15.00;99.90
46319;DHT22;32042;50.916;2.926;2022-09-09T07:25:53;15.00;99.90
46319;DHT22;32042;50.916;2.926;2022-09-09T07:28:22;15.00;99.90
46319;DHT22;32042;50.916;2.926;2022-09-09T07:30:59;15.00;99.90
46319;DHT22;32042;50.916;2.926;2022-09-09T07:33:26;15.10;99.90
46319;DHT22;32042;50.916;2.926;2022-09-09T07:35:53;15.10;99.90
46319;DHT22;32042;50.916;2.926;2022-09-09T07:38:19;15.10;99.90
46319;DHT22;32042;50.916;2.926;2022-09-09T07:40:46;15.10;99.90
46319;DHT22;32042;50.916;2.926;2022-09-09T07:43:12;15.20;99.90
46319;DHT22;32042;50.916;2.926;2022-09-09T07:45:38;15.20;99.90
46319;DHT22;32042;50.916;2.926;2022-09-09T07:48:05;15.30;99.90
46319;DHT22;32042;50.916;2.926;2022-09-09T07:50:31;15.30;99.90
46319;DHT22;32042;50.916;2.926;2022-09-09T07:52:57;15.30;99.90
46319;DHT22;32042;50.916;2.926;2022-09-09T07:55:23;15.40;99.90
46319;DHT22;32042;50.916;2.926;2022-09-09T07:57:53;15.40;99.90
46319;DHT22;32042;50.916;2.926;2022-09-09T08:00:21;15.40;99.90
46319;DHT22;32042;50.916;2.926;2022-09-09T08:02:47;15.50;99.90
46319;DHT22;32042;50.916;2.926;2022-09-09T08:05:14;15.50;99.90
46319;DHT22;32042;50.916;2.926;2022-09-09T08:07:40;15.50;99.90
46319;DHT22;32042;50.916;2.926;2022-09-09T08:10:06;15.60;99.90
46319;DHT22;32042;50.916;2.926;2022-09-09T08:12:32;15.60;99.90
46319;DHT22;32042;50.916;2.926;2022-09-09T08:14:58;15.70;99.90
46319;DHT22;32042;50.916;2.926;2022-09-09T08:17:23;15.80;99.90
46319;DHT22;32042;50.916;2.926;2022-09-09T08:19:49;15.90;99.90
46319;DHT22;32042;50.916;2.926;2022-09-09T08:22:15;16.00;99.90
46319;DHT22;32042;50.916;2.926;2022-09-09T08:24:40;16.00;99.90
46319;DHT22;32042;50.916;2.926;2022-09-09T08:27:06;16.10;99.90
46319;DHT22;32042;50.916;2.926;2022-09-09T08:29:32;16.10;99.90
46319;DHT22;32042;50.916;2.926;2022-09-09T08:31:58;16.10;99.90
46319;DHT22;32042;50.916;2.926;2022-09-09T08:34:25;16.20;99.90
46319;DHT22;32042;50.916;2.926;2022-09-09T08:36:53;16.30;99.90
46319;DHT22;32042;50.916;2.926;2022-09-09T08:39:21;16.50;99.90
46319;DHT22;32042;50.916;2.926;2022-09-09T08:41:56;16.60;99.90
46319;DHT22;32042;50.916;2.926;2022-09-09T08:50:33;16.60;99.90
46319;DHT22;32042;50.916;2.926;2022-09-09T08:53:17;16.70;99.90
46319;DHT22;32042;50.916;2.926;2022-09-09T08:55:56;16.60;99.90
46319;DHT22;32042;50.916;2.926;2022-09-09T08:58:33;16.50;99.90
46319;DHT22;32042;50.916;2.926;2022-09-09T09:11:43;16.50;99.90
46319;DHT22;32042;50.916;2.926;2022-09-09T09:14:31;16.50;99.90
46319;DHT22;32042;50.916;2.926;2022-09-09T09:19:32;16.60;99.90
46319;DHT22;32042;50.916;2.926;2022-09-09T09:22:04;16.60;99.90
46319;DHT22;32042;50.916;2.926;2022-09-09T09:29:46;16.70;99.90
46319;DHT22;32042;50.916;2.926;2022-09-09T09:32:17;16.80;99.90
46319;DHT22;32042;50.916;2.926;2022-09-09T09:34:49;16.80;99.90
46319;DHT22;32042;50.916;2.926;2022-09-09T09:37:23;16.80;99.90
46319;DHT22;32042;50.916;2.926;2022-09-09T09:39:51;16.80;99.90
46319;DHT22;32042;50.916;2.926;2022-09-09T09:42:17;16.90;99.90
46319;DHT22;32042;50.916;2.926;2022-09-09T09:44:43;16.90;99.90
46319;DHT22;32042;50.916;2.926;2022-09-09T09:49:39;16.80;99.90
46319;DHT22;32042;50.916;2.926;2022-09-09T09:52:06;16.80;99.90
46319;DHT22;32042;50.916;2.926;2022-09-09T09:54:38;16.80;99.90
46319;DHT22;32042;50.916;2.926;2022-09-09T09:57:14;16.80;99.90
46319;DHT22;32042;50.916;2.926;2022-09-09T09:59:41;16.80;99.90
46319;DHT22;32042;50.916;2.926;2022-09-09T10:02:23;16.80;99.90
46319;DHT22;32042;50.916;2.926;2022-09-09T10:05:17;16.90;99.90
46319;DHT22;32042;50.916;2.926;2022-09-09T10:07:44;17.00;99.90
46319;DHT22;32042;50.916;2.926;2022-09-09T10:10:24;17.00;99.90
46319;DHT22;32042;50.916;2.926;2022-09-09T10:19:21;17.40;99.90
46319;DHT22;32042;50.916;2.926;2022-09-09T10:28:04;17.60;99.90
46319;DHT22;32042;50.916;2.926;2022-09-09T10:33:22;17.50;99.90
46319;DHT22;32042;50.916;2.926;2022-09-09T10:36:22;17.50;99.90
46319;DHT22;32042;50.916;2.926;2022-09-09T10:39:05;17.60;99.90
46319;DHT22;32042;50.916;2.926;2022-09-09T10:49:16;17.90;99.90
46319;DHT22;32042;50.916;2.926;2022-09-09T10:59:50;17.80;99.90
46319;DHT22;32042;50.916;2.926;2022-09-09T11:02:28;17.80;99.90
46319;DHT22;32042;50.916;2.926;2022-09-09T11:05:05;17.80;99.90
46319;DHT22;32042;50.916;2.926;2022-09-09T11:08:05;17.90;99.90
46319;DHT22;32042;50.916;2.926;2022-09-09T11:10:51;18.00;99.90
46319;DHT22;32042;50.916;2.926;2022-09-09T11:16:35;18.30;99.90
46319;DHT22;32042;50.916;2.926;2022-09-09T11:19:28;18.40;99.90
46319;DHT22;32042;50.916;2.926;2022-09-09T11:21:55;18.50;99.90
46319;DHT22;32042;50.916;2.926;2022-09-09T11:26:59;18.30;99.90
46319;DHT22;32042;50.916;2.926;2022-09-09T11:29:44;18.20;99.90
46319;DHT22;32042;50.916;2.926;2022-09-09T11:35:38;18.00;99.90
46319;DHT22;32042;50.916;2.926;2022-09-09T11:41:03;17.80;99.90
46319;DHT22;32042;50.916;2.926;2022-09-09T11:43:38;17.70;99.90
46319;DHT22;32042;50.916;2.926;2022-09-09T11:46:06;17.60;99.90
46319;DHT22;32042;50.916;2.926;2022-09-09T11:48:39;17.50;99.90
46319;DHT22;32042;50.916;2.926;2022-09-09T11:53:54;17.50;99.90
46319;DHT22;32042;50.916;2.926;2022-09-09T11:59:05;17.40;99.90
46319;DHT22;32042;50.916;2.926;2022-09-09T12:01:39;17.40;99.90
46319;DHT22;32042;50.916;2.926;2022-09-09T12:12:41;17.50;99.90
46319;DHT22;32042;50.916;2.926;2022-09-09T12:17:42;17.60;99.90
46319;DHT22;32042;50.916;2.926;2022-09-09T12:34:10;18.40;99.90
46319;DHT22;32042;50.916;2.926;2022-09-09T12:36:38;18.40;99.90
46319;DHT22;32042;50.916;2.926;2022-09-09T12:41:54;18.50;99.90
46319;DHT22;32042;50.916;2.926;2022-09-09T12:44:22;18.50;99.90
46319;DHT22;32042;50.916;2.926;2022-09-09T12:46:48;18.50;99.90
46319;DHT22;32042;50.916;2.926;2022-09-09T12:49:38;18.60;99.90
46319;DHT22;32042;50.916;2.926;2022-09-09T12:52:08;18.60;99.90
46319;DHT22;32042;50.916;2.926;2022-09-09T12:54:44;18.70;99.90
46319;DHT22;32042;50.916;2.926;2022-09-09T12:57:13;18.70;99.90
46319;DHT22;32042;50.916;2.926;2022-09-09T12:59:41;18.70;99.90
46319;DHT22;32042;50.916;2.926;2022-09-09T13:02:25;18.60;99.90
46319;DHT22;32042;50.916;2.926;2022-09-09T13:04:53;18.40;99.90
46319;DHT22;32042;50.916;2.926;2022-09-09T13:07:21;18.30;99.90
46319;DHT22;32042;50.916;2.926;2022-09-09T13:09:48;18.30;99.90
46319;DHT22;32042;50.916;2.926;2022-09-09T13:12:23;18.40;99.90
46319;DHT22;32042;50.916;2.926;2022-09-09T13:14:53;18.40;99.90
46319;DHT22;32042;50.916;2.926;2022-09-09T13:17:24;18.50;99.90
46319;DHT22;32042;50.916;2.926;2022-09-09T13:19:50;18.60;99.90
46319;DHT22;32042;50.916;2.926;2022-09-09T13:22:37;18.70;99.90
46319;DHT22;32042;50.916;2.926;2022-09-09T13:27:39;18.80;99.90
46319;DHT22;32042;50.916;2.926;2022-09-09T13:30:24;18.80;99.90
46319;DHT22;32042;50.916;2.926;2022-09-09T13:35:47;19.00;99.90
46319;DHT22;32042;50.916;2.926;2022-09-09T13:38:15;19.10;99.90
46319;DHT22;32042;50.916;2.926;2022-09-09T13:40:56;19.10;99.90
46319;DHT22;32042;50.916;2.926;2022-09-09T13:43:23;19.00;99.90
46319;DHT22;32042;50.916;2.926;2022-09-09T13:46:02;18.90;99.90
46319;DHT22;32042;50.916;2.926;2022-09-09T13:48:28;19.00;99.90
46319;DHT22;32042;50.916;2.926;2022-09-09T13:50:57;19.10;99.90
46319;DHT22;32042;50.916;2.926;2022-09-09T13:53:23;19.20;99.90
46319;DHT22;32042;50.916;2.926;2022-09-09T13:55:50;19.30;99.90
46319;DHT22;32042;50.916;2.926;2022-09-09T13:58:17;19.30;99.90
46319;DHT22;32042;50.916;2.926;2022-09-09T14:00:47;19.30;99.90
46319;DHT22;32042;50.916;2.926;2022-09-09T14:03:13;19.20;99.90
46319;DHT22;32042;50.916;2.926;2022-09-09T14:05:39;19.20;99.90
46319;DHT22;32042;50.916;2.926;2022-09-09T14:08:06;19.20;99.90
46319;DHT22;32042;50.916;2.926;2022-09-09T14:10:32;19.30;99.90
46319;DHT22;32042;50.916;2.926;2022-09-09T14:13:01;19.30;99.90
46319;DHT22;32042;50.916;2.926;2022-09-09T14:15:26;19.30;99.90
46319;DHT22;32042;50.916;2.926;2022-09-09T14:17:52;19.40;99.90
46319;DHT22;32042;50.916;2.926;2022-09-09T14:20:18;19.30;99.90
46319;DHT22;32042;50.916;2.926;2022-09-09T14:22:44;19.40;99.90
46319;DHT22;32042;50.916;2.926;2022-09-09T14:25:10;19.40;99.90
46319;DHT22;32042;50.916;2.926;2022-09-09T14:27:38;19.40;99.90
46319;DHT22;32042;50.916;2.926;2022-09-09T14:30:05;19.40;99.90
46319;DHT22;32042;50.916;2.926;2022-09-09T14:32:31;19.30;99.90
46319;DHT22;32042;50.916;2.926;2022-09-09T14:34:57;19.30;99.90
46319;DHT22;32042;50.916;2.926;2022-09-09T14:37:23;19.10;99.90
46319;DHT22;32042;50.916;2.926;2022-09-09T14:39:49;18.90;99.90
46319;DHT22;32042;50.916;2.926;2022-09-09T14:42:16;18.50;99.90
46319;DHT22;32042;50.916;2.926;2022-09-09T14:44:41;18.40;99.90
46319;DHT22;32042;50.916;2.926;2022-09-09T14:47:08;18.40;99.90
46319;DHT22;32042;50.916;2.926;2022-09-09T14:49:38;18.60;99.90
46319;DHT22;32042;50.916;2.926;2022-09-09T14:52:04;18.50;99.90
46319;DHT22;32042;50.916;2.926;2022-09-09T14:54:31;18.50;99.90
46319;DHT22;32042;50.916;2.926;2022-09-09T14:56:57;18.70;99.90
46319;DHT22;32042;50.916;2.926;2022-09-09T14:59:23;18.70;99.90
46319;DHT22;32042;50.916;2.926;2022-09-09T15:01:49;18.70;99.90
46319;DHT22;32042;50.916;2.926;2022-09-09T15:04:15;18.70;99.90
46319;DHT22;32042;50.916;2.926;2022-09-09T15:06:42;18.70;99.90
46319;DHT22;32042;50.916;2.926;2022-09-09T15:09:09;18.70;99.90
46319;DHT22;32042;50.916;2.926;2022-09-09T15:11:37;18.80;99.90
46319;DHT22;32042;50.916;2.926;2022-09-09T15:14:04;18.80;99.90
46319;DHT22;32042;50.916;2.926;2022-09-09T15:16:30;18.80;99.90
46319;DHT22;32042;50.916;2.926;2022-09-09T15:18:58;18.60;99.90
46319;DHT22;32042;50.916;2.926;2022-09-09T15:21:26;18.50;99.90
46319;DHT22;32042;50.916;2.926;2022-09-09T15:23:53;18.50;99.90
46319;DHT22;32042;50.916;2.926;2022-09-09T15:26:19;18.70;99.90
46319;DHT22;32042;50.916;2.926;2022-09-09T15:28:47;18.80;99.90
46319;DHT22;32042;50.916;2.926;2022-09-09T15:31:20;19.00;99.90
46319;DHT22;32042;50.916;2.926;2022-09-09T15:33:54;19.10;99.90
46319;DHT22;32042;50.916;2.926;2022-09-09T15:36:27;19.10;99.90
46319;DHT22;32042;50.916;2.926;2022-09-09T15:38:54;19.10;99.90
46319;DHT22;32042;50.916;2.926;2022-09-09T15:41:21;19.00;99.90
46319;DHT22;32042;50.916;2.926;2022-09-09T15:43:49;18.90;99.90
46319;DHT22;32042;50.916;2.926;2022-09-09T15:46:53;18.90;99.90
46319;DHT22;32042;50.916;2.926;2022-09-09T15:49:24;18.90;99.90
46319;DHT22;32042;50.916;2.926;2022-09-09T15:51:55;18.90;99.90
46319;DHT22;32042;50.916;2.926;2022-09-09T15:54:22;18.90;99.90
46319;DHT22;32042;50.916;2.926;2022-09-09T15:56:57;18.90;99.90
46319;DHT22;32042;50.916;2.926;2022-09-09T15:59:24;18.90;99.90
46319;DHT22;32042;50.916;2.926;2022-09-09T16:01:50;18.90;99.90
46319;DHT22;32042;50.916;2.926;2022-09-09T16:04:19;18.90;99.90
46319;DHT22;32042;50.916;2.926;2022-09-09T16:06:50;18.80;99.90
46319;DHT22;32042;50.916;2.926;2022-09-09T16:09:16;18.70;99.90
46319;DHT22;32042;50.916;2.926;2022-09-09T16:11:41;18.60;99.90
46319;DHT22;32042;50.916;2.926;2022-09-09T16:14:07;18.60;99.90
46319;DHT22;32042;50.916;2.926;2022-09-09T16:16:34;18.50;99.90
46319;DHT22;32042;50.916;2.926;2022-09-09T16:19:04;18.50;99.90
46319;DHT22;32042;50.916;2.926;2022-09-09T16:21:37;18.60;99.90
46319;DHT22;32042;50.916;2.926;2022-09-09T16:24:03;18.80;99.90
46319;DHT22;32042;50.916;2.926;2022-09-09T16:26:31;19.00;99.90
46319;DHT22;32042;50.916;2.926;2022-09-09T16:28:58;19.00;99.90
46319;DHT22;32042;50.916;2.926;2022-09-09T16:31:25;18.90;99.90
46319;DHT22;32042;50.916;2.926;2022-09-09T16:33:52;18.70;99.90
46319;DHT22;32042;50.916;2.926;2022-09-09T16:36:20;18.60;99.90
46319;DHT22;32042;50.916;2.926;2022-09-09T16:38:46;18.60;99.90
46319;DHT22;32042;50.916;2.926;2022-09-09T16:41:13;18.50;99.90
46319;DHT22;32042;50.916;2.926;2022-09-09T16:43:40;18.50;99.90
46319;DHT22;32042;50.916;2.926;2022-09-09T16:46:17;18.50;99.90
46319;DHT22;32042;50.916;2.926;2022-09-09T16:48:44;18.50;99.90
46319;DHT22;32042;50.916;2.926;2022-09-09T16:51:16;18.40;99.90
46319;DHT22;32042;50.916;2.926;2022-09-09T16:53:42;18.30;99.90
46319;DHT22;32042;50.916;2.926;2022-09-09T16:56:13;18.30;99.90
46319;DHT22;32042;50.916;2.926;2022-09-09T16:58:38;18.40;99.90
46319;DHT22;32042;50.916;2.926;2022-09-09T17:01:05;18.30;99.90
46319;DHT22;32042;50.916;2.926;2022-09-09T17:03:31;18.30;99.90
46319;DHT22;32042;50.916;2.926;2022-09-09T17:05:58;18.20;99.90
46319;DHT22;32042;50.916;2.926;2022-09-09T17:08:28;18.20;99.90
46319;DHT22;32042;50.916;2.926;2022-09-09T17:10:54;18.10;99.90
46319;DHT22;32042;50.916;2.926;2022-09-09T17:13:20;18.10;99.90
46319;DHT22;32042;50.916;2.926;2022-09-09T17:15:46;18.00;99.90
46319;DHT22;32042;50.916;2.926;2022-09-09T17:18:12;18.00;99.90
46319;DHT22;32042;50.916;2.926;2022-09-09T17:20:39;18.10;99.90
46319;DHT22;32042;50.916;2.926;2022-09-09T17:23:10;18.40;99.90
46319;DHT22;32042;50.916;2.926;2022-09-09T17:25:35;18.50;99.90
46319;DHT22;32042;50.916;2.926;2022-09-09T17:28:02;18.40;99.90
46319;DHT22;32042;50.916;2.926;2022-09-09T17:30:35;18.40;99.90
46319;DHT22;32042;50.916;2.926;2022-09-09T17:33:02;18.40;99.90
46319;DHT22;32042;50.916;2.926;2022-09-09T17:35:29;18.30;99.90
46319;DHT22;32042;50.916;2.926;2022-09-09T17:37:55;18.10;99.90
46319;DHT22;32042;50.916;2.926;2022-09-09T17:40:21;18.00;99.90
46319;DHT22;32042;50.916;2.926;2022-09-09T17:42:47;17.80;99.90
46319;DHT22;32042;50.916;2.926;2022-09-09T17:45:14;17.70;99.90
46319;DHT22;32042;50.916;2.926;2022-09-09T17:47:40;17.70;99.90
46319;DHT22;32042;50.916;2.926;2022-09-09T17:50:08;17.60;99.90
46319;DHT22;32042;50.916;2.926;2022-09-09T17:52:35;17.60;99.90
46319;DHT22;32042;50.916;2.926;2022-09-09T17:55:03;17.50;99.90
46319;DHT22;32042;50.916;2.926;2022-09-09T17:57:29;17.50;99.90
46319;DHT22;32042;50.916;2.926;2022-09-09T17:59:55;17.50;99.90
46319;DHT22;32042;50.916;2.926;2022-09-09T18:02:21;17.50;99.90
46319;DHT22;32042;50.916;2.926;2022-09-09T18:04:46;17.40;99.90
46319;DHT22;32042;50.916;2.926;2022-09-09T18:07:12;17.40;99.90
46319;DHT22;32042;50.916;2.926;2022-09-09T18:09:38;17.40;99.90
46319;DHT22;32042;50.916;2.926;2022-09-09T18:12:05;17.30;99.90
46319;DHT22;32042;50.916;2.926;2022-09-09T18:14:31;17.30;99.90
46319;DHT22;32042;50.916;2.926;2022-09-09T18:17:00;17.30;99.90
46319;DHT22;32042;50.916;2.926;2022-09-09T18:19:27;17.30;99.90
46319;DHT22;32042;50.916;2.926;2022-09-09T18:21:55;17.20;99.90
46319;DHT22;32042;50.916;2.926;2022-09-09T18:24:21;17.20;99.90